Denmark, Georgia
Current Conditions -  °F | °C
As of 12:35 PM on Wednesday 26 Nov 2014 (Local Time) from KCWV Reporting Station
Scattered Clouds Scattered Clouds  
Wind Chill: 59°   Ceiling: Unl
Heat Index: 59°   Visibility: 10mi
Dew Point: 32°   Wind: 12mph
Humidity: 36%   Direction: 280°W
Pressure: 30.07"   Gusts: NA
Location:  32.2794°N, 81.623°W
Report Text: KCWV 261735Z AUTO 28010KT 10SM SCT024 SCT029 15/00 A3007 RMK AO2
Loading
Personal Weather Stations






























Interactive Weather Map New forecast layout! Learn more

10-Day Weather Forecast

Advertisements
Track Severe Weather on mobile